createdAt,value
2019-03-04T00:00:59.829Z,77.96
2019-03-04T00:05:55.746Z,77.72
2019-03-04T00:10:51.691Z,77.46
2019-03-04T00:15:47.605Z,77.50
2019-03-04T00:20:43.523Z,77.42
2019-03-04T00:25:39.608Z,77.36
2019-03-04T00:30:35.538Z,77.02
2019-03-04T00:35:31.484Z,76.62
2019-03-04T00:40:27.500Z,76.43
2019-03-04T00:45:23.431Z,76.29
2019-03-04T00:50:19.708Z,75.84
2019-03-04T00:55:15.926Z,75.25
2019-03-04T01:00:17.892Z,75.22
2019-03-04T01:05:14.023Z,75.38
2019-03-04T01:10:12.049Z,75.43
2019-03-04T01:15:13.560Z,75.40
2019-03-04T01:20:13.462Z,75.64
2019-03-04T01:25:15.650Z,75.03
2019-03-04T01:30:22.746Z,75.05
2019-03-04T01:35:18.996Z,74.92
2019-03-04T01:40:20.596Z,74.65
2019-03-04T01:45:17.419Z,74.49
2019-03-04T01:50:14.933Z,74.33
2019-03-04T01:55:12.253Z,74.08
2019-03-04T02:00:11.071Z,74.04
2019-03-04T02:05:07.424Z,74.14
2019-03-04T02:10:06.956Z,73.86
2019-03-04T02:15:05.678Z,73.92
2019-03-04T02:20:04.226Z,73.91
2019-03-04T02:25:00.337Z,73.71
2019-03-04T02:29:56.253Z,73.77
2019-03-04T02:34:52.271Z,73.75
2019-03-04T02:39:48.268Z,73.64
2019-03-04T02:44:44.187Z,73.50
2019-03-04T02:49:40.105Z,73.10
2019-03-04T02:54:36.028Z,73.14
2019-03-04T02:59:31.985Z,72.90
2019-03-04T03:04:27.913Z,73.05
2019-03-04T03:09:23.831Z,72.95
2019-03-04T03:14:19.744Z,72.51
2019-03-04T03:19:15.712Z,72.95
2019-03-04T03:24:11.796Z,72.60
2019-03-04T03:29:07.735Z,73.18
2019-03-04T03:34:03.675Z,73.16
2019-03-04T03:39:00.303Z,73.23
2019-03-04T03:43:56.193Z,73.22
2019-03-04T03:48:52.134Z,73.38
2019-03-04T03:53:48.064Z,73.38
2019-03-04T03:58:44.090Z,73.17
2019-03-04T04:03:40.040Z,73.60
2019-03-04T04:08:37.158Z,73.27
2019-03-04T04:13:33.083Z,73.26
2019-03-04T04:18:29.020Z,73.32
2019-03-04T04:23:24.945Z,73.13
2019-03-04T04:28:20.879Z,72.38
2019-03-04T04:33:16.819Z,71.88
2019-03-04T04:38:19.418Z,71.52
2019-03-04T04:43:17.234Z,70.42
2019-03-04T04:48:13.204Z,68.77
2019-03-04T04:53:09.120Z,68.55
2019-03-04T04:58:05.144Z,67.48
2019-03-04T05:03:01.219Z,67.26
2019-03-04T05:07:57.135Z,66.95
2019-03-04T05:12:53.054Z,66.42
2019-03-04T05:17:49.031Z,66.20
2019-03-04T05:22:44.956Z,66.31
2019-03-04T05:27:40.993Z,66.25
2019-03-04T05:32:36.914Z,66.11
2019-03-04T05:37:32.862Z,65.93
2019-03-04T05:42:28.783Z,66.42
2019-03-04T05:47:24.675Z,65.31
2019-03-04T05:52:20.588Z,65.32
2019-03-04T05:57:16.620Z,64.60
2019-03-04T06:02:12.547Z,63.50
2019-03-04T06:07:10.377Z,62.88
2019-03-04T06:12:06.305Z,62.55
2019-03-04T06:17:02.227Z,62.13
2019-03-04T06:21:58.269Z,62.38
2019-03-04T06:26:54.368Z,62.22
2019-03-04T06:31:50.285Z,61.36
2019-03-04T06:36:46.333Z,61.89
2019-03-04T06:41:42.761Z,61.81
2019-03-04T06:46:38.799Z,62.11
2019-03-04T06:51:36.941Z,62.05
2019-03-04T06:56:45.815Z,61.85
2019-03-04T07:02:13.676Z,61.37
2019-03-04T07:07:09.611Z,61.55
2019-03-04T07:12:05.551Z,63.26
2019-03-04T07:17:01.474Z,64.32
2019-03-04T07:21:59.902Z,71.26
2019-03-04T07:26:55.921Z,85.60
2019-03-04T07:31:51.842Z,85.15
2019-03-04T07:36:47.782Z,82.56
2019-03-04T07:41:43.776Z,82.35
2019-03-04T07:46:39.764Z,82.37
2019-03-04T07:51:35.698Z,80.39
2019-03-04T07:56:31.718Z,79.11
2019-03-04T08:01:27.655Z,77.43
2019-03-04T08:06:23.568Z,77.47
2019-03-04T08:11:56.833Z,76.24
2019-03-04T08:16:52.774Z,75.35
2019-03-04T08:21:48.722Z,73.91
2019-03-04T08:26:44.641Z,72.77
2019-03-04T08:31:40.661Z,72.75
2019-03-04T08:36:36.603Z,72.91
2019-03-04T08:41:32.522Z,71.92
2019-03-04T08:46:28.444Z,71.96
2019-03-04T08:51:24.358Z,72.05
2019-03-04T08:56:20.276Z,71.31
2019-03-04T09:01:16.300Z,70.64
2019-03-04T09:06:12.386Z,67.81
2019-03-04T09:11:08.909Z,67.01
2019-03-04T09:16:04.853Z,67.95
2019-03-04T09:21:00.777Z,67.72
2019-03-04T09:26:03.207Z,68.84
2019-03-04T09:30:59.267Z,69.78
2019-03-04T09:35:55.328Z,72.79
2019-03-04T09:40:51.348Z,72.67
2019-03-04T09:45:47.370Z,72.58
2019-03-04T09:50:43.549Z,71.37
2019-03-04T09:55:40.320Z,67.27
2019-03-04T10:00:42.857Z,64.73
2019-03-04T10:06:07.047Z,62.57
2019-03-04T10:11:27.111Z,62.25
2019-03-04T10:16:41.927Z,61.49
2019-03-04T10:21:50.916Z,59.90
2019-03-04T10:27:07.343Z,57.94
2019-03-04T10:32:07.071Z,59.06
2019-03-04T10:37:42.086Z,59.65
2019-03-04T10:42:53.600Z,60.64
2019-03-04T10:47:49.512Z,61.65
2019-03-04T10:52:45.460Z,64.12
2019-03-04T10:57:41.371Z,65.94
2019-03-04T11:02:37.297Z,68.63
2019-03-04T11:07:33.218Z,75.37
2019-03-04T11:12:29.125Z,79.22
2019-03-04T11:17:25.035Z,79.84
2019-03-04T11:22:20.945Z,80.88
2019-03-04T11:27:17.055Z,80.65
2019-03-04T11:32:12.960Z,81.44
2019-03-04T11:37:08.902Z,79.79
2019-03-04T11:42:04.810Z,78.94
2019-03-04T11:47:00.727Z,78.50
2019-03-04T11:51:56.658Z,78.53
2019-03-04T11:56:52.688Z,77.44
2019-03-04T12:01:49.219Z,75.66
2019-03-04T12:06:45.134Z,75.35
2019-03-04T12:11:41.142Z,75.60
2019-03-04T12:16:37.051Z,77.08
2019-03-04T12:21:33.277Z,88.58
2019-03-04T12:26:29.235Z,91.29
2019-03-04T12:31:28.430Z,91.72
2019-03-04T12:36:24.615Z,91.04
2019-03-04T12:41:20.617Z,90.29
2019-03-04T12:46:16.528Z,89.50
2019-03-04T12:51:12.438Z,88.86
2019-03-04T12:56:08.364Z,88.35
2019-03-04T13:01:04.366Z,87.93
2019-03-04T13:06:00.292Z,87.03
2019-03-04T13:10:56.208Z,86.68
2019-03-04T13:15:52.417Z,85.32
2019-03-04T13:20:48.320Z,84.50
2019-03-04T13:25:45.106Z,84.65
2019-03-04T13:30:45.602Z,82.62
2019-03-04T13:35:42.781Z,79.40
2019-03-04T13:40:38.797Z,77.12
2019-03-04T13:45:35.005Z,77.53
2019-03-04T13:50:35.557Z,76.93
2019-03-04T13:55:31.474Z,76.62
2019-03-04T14:00:41.977Z,74.35
2019-03-04T14:05:37.988Z,75.23
2019-03-04T14:11:03.521Z,73.15
2019-03-04T14:16:03.299Z,72.12
2019-03-04T14:21:01.860Z,72.98
2019-03-04T14:26:00.128Z,72.49
2019-03-04T14:30:56.334Z,73.13
2019-03-04T14:35:53.271Z,72.86
2019-03-04T14:40:51.536Z,73.03
2019-03-04T14:45:48.330Z,72.68
2019-03-04T14:50:45.035Z,73.76
2019-03-04T14:55:42.741Z,73.47
2019-03-04T15:00:42.134Z,73.48
2019-03-04T15:05:39.011Z,72.62
2019-03-04T15:10:35.906Z,71.00
2019-03-04T15:15:33.965Z,69.83
2019-03-04T15:20:33.477Z,70.20
2019-03-04T15:25:56.642Z,70.37
2019-03-04T15:31:00.313Z,69.08
2019-03-04T15:35:57.827Z,67.95
2019-03-04T15:40:54.684Z,68.24
2019-03-04T15:45:58.606Z,67.03
2019-03-04T15:50:55.861Z,66.17
2019-03-04T15:55:58.709Z,65.55
2019-03-04T16:00:56.397Z,66.70
2019-03-04T16:05:54.474Z,64.91
2019-03-04T16:10:51.397Z,64.65
2019-03-04T16:15:47.643Z,63.94
2019-03-04T16:20:44.112Z,64.77
2019-03-04T16:25:40.637Z,64.23
2019-03-04T16:30:36.791Z,64.78
2019-03-04T16:35:32.732Z,64.84
2019-03-04T16:40:29.665Z,65.30
2019-03-04T16:45:27.242Z,65.50
2019-03-04T16:50:26.471Z,65.50
2019-03-04T16:55:22.435Z,65.55
2019-03-04T17:00:19.755Z,66.31
2019-03-04T17:05:17.298Z,66.54
2019-03-04T17:10:23.855Z,66.60
2019-03-04T17:15:21.875Z,67.18
2019-03-04T17:20:19.106Z,67.46
2019-03-04T17:25:25.248Z,67.96
2019-03-04T17:30:23.527Z,67.16
2019-03-04T17:35:20.749Z,67.62
2019-03-04T17:40:18.453Z,67.61
2019-03-04T17:45:24.491Z,66.60
2019-03-04T17:50:31.149Z,66.46
2019-03-04T17:55:27.285Z,66.12
2019-03-04T18:00:23.232Z,66.09
2019-03-04T18:05:21.564Z,65.99
2019-03-04T18:10:18.754Z,65.87
2019-03-04T18:15:27.207Z,66.35
2019-03-04T18:20:33.606Z,66.17
2019-03-04T18:25:31.092Z,66.04
2019-03-04T18:30:39.832Z,65.64
2019-03-04T18:35:51.602Z,66.13
2019-03-04T18:41:09.609Z,66.54
2019-03-04T18:46:36.122Z,67.13
2019-03-04T18:51:32.902Z,67.27
2019-03-04T18:56:28.806Z,68.14
2019-03-04T19:01:24.940Z,68.54
2019-03-04T19:06:20.845Z,69.48
2019-03-04T19:11:16.798Z,69.01
2019-03-04T19:16:12.735Z,69.59
2019-03-04T19:21:08.857Z,69.13
2019-03-04T19:26:04.766Z,69.62
2019-03-04T19:31:00.743Z,69.22
2019-03-04T19:35:56.682Z,69.37
2019-03-04T19:40:53.752Z,69.37
2019-03-04T19:45:50.188Z,68.95
2019-03-04T19:50:47.486Z,68.45
2019-03-04T19:55:43.859Z,67.79
2019-03-04T20:00:40.139Z,67.33
2019-03-04T20:05:36.099Z,67.05
2019-03-04T20:10:32.019Z,66.84
2019-03-04T20:15:29.951Z,66.41
2019-03-04T20:20:29.083Z,66.18
2019-03-04T20:25:25.445Z,66.40
2019-03-04T20:30:23.075Z,65.93
2019-03-04T20:35:20.539Z,65.66
2019-03-04T20:40:16.681Z,66.41
2019-03-04T20:45:14.219Z,66.17
2019-03-04T20:50:19.235Z,65.82
2019-03-04T20:55:15.401Z,66.29
2019-03-04T21:00:36.178Z,66.43
2019-03-04T21:05:32.944Z,66.96
2019-03-04T21:10:29.008Z,66.91
2019-03-04T21:15:25.549Z,66.82
2019-03-04T21:20:22.611Z,66.42
2019-03-04T21:25:42.346Z,66.35
2019-03-04T21:30:44.977Z,66.68
2019-03-04T21:35:53.821Z,67.97
2019-03-04T21:40:55.344Z,67.89
2019-03-04T21:46:16.463Z,68.99
2019-03-04T21:51:37.853Z,69.17
2019-03-04T21:56:44.999Z,69.04
2019-03-04T22:01:47.994Z,68.69
2019-03-04T22:06:43.904Z,69.52
2019-03-04T22:11:39.847Z,69.71
2019-03-04T22:16:35.838Z,69.39
2019-03-04T22:21:31.768Z,69.66
2019-03-04T22:26:27.732Z,69.61
2019-03-04T22:31:24.394Z,71.38
2019-03-04T22:36:20.329Z,71.96
2019-03-04T22:41:16.237Z,71.88
2019-03-04T22:46:12.195Z,71.77
2019-03-04T22:51:08.278Z,71.22
2019-03-04T22:56:04.288Z,71.38
2019-03-04T23:01:05.920Z,73.78
2019-03-04T23:06:27.074Z,76.24
2019-03-04T23:11:26.816Z,78.50
2019-03-04T23:16:28.542Z,81.21
2019-03-04T23:21:24.449Z,82.93
2019-03-04T23:26:20.432Z,85.19
2019-03-04T23:31:16.363Z,87.34
2019-03-04T23:36:12.355Z,88.00
2019-03-04T23:41:08.257Z,88.18
2019-03-04T23:46:04.260Z,87.74
2019-03-04T23:51:00.764Z,88.33
2019-03-04T23:55:56.656Z,88.34
